Time;durP1;ratioP1;P1;durP2;ratioP2;P2;SDS_P1;SDS_P2;PMS_P1;PMS_P2;Temp;Humidity;BMP_temperature;BMP_pressure;BME280_temperature;BME280_humidity;BME280_pressure;Samples;Min_cycle;Max_cycle;Signal;HPM_P1;HPM_P2
2024/02/07 00:00:05;;;;;;;8.97;4.13;;;;;;;;;;704117;28;1257;-66
2024/02/07 00:00:27;;;;;;;9.60;3.80;;;;;;;;;;705613;27;2027;-68
2024/02/07 00:00:48;;;;;;;9.82;4.10;;;;;;;;;;703464;28;2266;-67
2024/02/07 00:01:08;;;;;;;9.63;4.70;;;;;;;;;;703063;28;4442;-65
2024/02/07 00:01:28;;;;;;;8.07;4.10;;;;;;;;;;703798;28;1325;-67
2024/02/07 00:01:49;;;;;;;9.07;3.60;;;;;;;;;;702920;28;2376;-67
2024/02/07 00:02:09;;;;;;;10.17;3.87;;;;;;;;;;704356;28;812;-65
2024/02/07 00:02:29;;;;;;;9.13;3.77;;;;;;;;;;700964;28;939;-66
2024/02/07 00:02:50;;;;;;;10.30;4.00;;;;;;;;;;700430;28;1545;-67
2024/02/07 00:03:10;;;;;;;9.97;4.23;;;;;;;;;;701615;28;1219;-68
2024/02/07 00:03:30;;;;;;;11.53;4.20;;;;;;;;;;701734;28;808;-68
2024/02/07 00:03:51;;;;;;;11.60;4.40;;;;;;;;;;699318;28;4413;-68
2024/02/07 00:04:11;;;;;;;8.40;4.03;;;;;;;;;;701230;28;896;-68
2024/02/07 00:04:31;;;;;;;7.93;4.00;;;;;;;;;;702750;28;945;-70
2024/02/07 00:04:52;;;;;;;8.60;4.07;;;;;;;;;;700431;28;1695;-65
2024/02/07 00:05:12;;;;;;;9.37;4.00;;;;;;;;;;701065;28;1248;-67
2024/02/07 00:05:32;;;;;;;9.05;4.00;;;;;;;;;;704962;28;825;-66
2024/02/07 00:05:53;;;;;;;10.10;4.40;;;;;;;;;;702503;28;1829;-67
2024/02/07 00:06:16;;;;;;;10.70;4.43;;;;;;;;;;703933;28;947;-66
2024/02/07 00:06:36;;;;;;;9.48;4.13;;;;;;;;;;704645;28;972;-66
2024/02/07 00:06:56;;;;;;;8.73;4.00;;;;;;;;;;701046;28;4509;-67
2024/02/07 00:07:17;;;;;;;7.80;3.80;;;;;;;;;;702835;28;845;-65
2024/02/07 00:07:37;;;;;;;9.63;4.20;;;;;;;;;;703494;28;816;-66
2024/02/07 00:07:58;;;;;;;9.88;4.40;;;;;;;;;;699325;28;1820;-68
2024/02/07 00:08:18;;;;;;;9.23;4.17;;;;;;;;;;701129;28;1089;-64
2024/02/07 00:08:38;;;;;;;9.07;4.00;;;;;;;;;;699959;28;1144;-69
2024/02/07 00:08:59;;;;;;;11.50;4.70;;;;;;;;;;701233;28;1837;-68
2024/02/07 00:09:19;;;;;;;10.80;4.67;;;;;;;;;;701443;28;804;-68
2024/02/07 00:09:40;;;;;;;9.57;4.50;;;;;;;;;;703833;28;939;-68
2024/02/07 00:10:00;;;;;;;8.50;3.85;;;;;;;;;;702742;28;4905;-67
2024/02/07 00:10:21;;;;;;;7.77;3.70;;;;;;;;;;704128;28;1005;-70
2024/02/07 00:10:41;;;;;;;10.13;4.07;;;;;;;;;;701920;28;808;-68
2024/02/07 00:11:03;;;;;;;9.43;4.33;;;;;;;;;;702571;28;1814;-69
2024/02/07 00:11:23;;;;;;;8.65;4.35;;;;;;;;;;703535;28;856;-69
2024/02/07 00:11:44;;;;;;;8.43;4.45;;;;;;;;;;702470;28;1527;-69
2024/02/07 00:12:04;;;;;;;8.73;4.07;;;;;;;;;;700319;28;1411;-69
2024/02/07 00:12:25;;;;;;;9.93;4.20;;;;;;;;;;701859;28;738;-62
2024/02/07 00:12:45;;;;;;;8.17;3.90;;;;;;;;;;700795;28;937;-67
2024/02/07 00:13:05;;;;;;;10.52;3.85;;;;;;;;;;698033;28;4390;-68
2024/02/07 00:13:25;;;;;;;10.03;4.50;;;;;;;;;;699006;28;1336;-68
2024/02/07 00:13:45;;;;;;;9.20;4.47;;;;;;;;;;694139;28;1747;-68
2024/02/07 00:14:07;;;;;;;10.53;4.30;;;;;;;;;;700483;28;1132;-66
2024/02/07 00:14:28;;;;;;;9.65;4.47;;;;;;;;;;696249;28;1180;-66
2024/02/07 00:14:48;;;;;;;10.43;4.27;;;;;;;;;;694988;28;1715;-66
2024/02/07 00:15:09;;;;;;;9.40;4.35;;;;;;;;;;699487;28;1026;-65
2024/02/07 00:15:29;;;;;;;7.97;4.77;;;;;;;;;;695797;28;1195;-68
2024/02/07 00:15:49;;;;;;;9.27;4.67;;;;;;;;;;695786;28;4589;-65
2024/02/07 00:16:10;;;;;;;9.30;4.40;;;;;;;;;;698439;28;904;-67
2024/02/07 00:16:31;;;;;;;8.37;4.47;;;;;;;;;;701038;28;1154;-67
2024/02/07 00:16:51;;;;;;;7.80;4.40;;;;;;;;;;699701;28;1721;-67
2024/02/07 00:17:12;;;;;;;7.82;4.28;;;;;;;;;;699499;28;1321;-67
2024/02/07 00:17:32;;;;;;;9.90;4.17;;;;;;;;;;701888;28;900;-67
2024/02/07 00:17:53;;;;;;;9.50;4.03;;;;;;;;;;700076;28;953;-67
2024/02/07 00:18:13;;;;;;;8.30;4.37;;;;;;;;;;702368;28;1250;-67
2024/02/07 00:18:33;;;;;;;9.88;4.00;;;;;;;;;;702847;28;924;-65
2024/02/07 00:18:53;;;;;;;9.77;4.50;;;;;;;;;;698175;28;4420;-69
2024/02/07 00:19:14;;;;;;;10.93;4.50;;;;;;;;;;704891;28;718;-68
2024/02/07 00:19:34;;;;;;;9.65;4.40;;;;;;;;;;705564;28;914;-65
2024/02/07 00:19:54;;;;;;;10.43;4.97;;;;;;;;;;699327;28;1772;-67
2024/02/07 00:20:15;;;;;;;10.33;5.07;;;;;;;;;;702530;28;1959;-66
2024/02/07 00:20:35;;;;;;;10.25;4.78;;;;;;;;;;701608;28;1277;-67
2024/02/07 00:20:55;;;;;;;11.70;4.80;;;;;;;;;;701104;28;1104;-67
2024/02/07 00:21:15;;;;;;;12.30;4.90;;;;;;;;;;699826;28;1132;-65
2024/02/07 00:21:36;;;;;;;11.70;4.57;;;;;;;;;;698260;28;975;-66
2024/02/07 00:21:57;;;;;;;8.25;4.50;;;;;;;;;;699209;28;4322;-66
2024/02/07 00:22:17;;;;;;;7.87;3.93;;;;;;;;;;700939;28;1348;-68
2024/02/07 00:22:38;;;;;;;10.73;4.53;;;;;;;;;;701006;28;808;-66
2024/02/07 00:22:59;;;;;;;10.52;4.95;;;;;;;;;;700426;28;1112;-66
2024/02/07 00:23:19;;;;;;;10.27;4.67;;;;;;;;;;704563;28;777;-66
2024/02/07 00:23:39;;;;;;;9.23;4.23;;;;;;;;;;702982;28;1242;-66
2024/02/07 00:23:59;;;;;;;9.48;4.57;;;;;;;;;;698795;28;1494;-65
2024/02/07 00:24:20;;;;;;;8.53;4.30;;;;;;;;;;698694;28;900;-66
2024/02/07 00:24:40;;;;;;;8.57;4.43;;;;;;;;;;696328;28;1456;-66
2024/02/07 00:25:00;;;;;;;11.82;4.85;;;;;;;;;;693979;28;4452;-66
2024/02/07 00:25:20;;;;;;;11.47;5.20;;;;;;;;;;695501;28;1321;-65
2024/02/07 00:25:41;;;;;;;9.57;4.57;;;;;;;;;;697725;28;1272;-66
2024/02/07 00:26:01;;;;;;;10.18;4.25;;;;;;;;;;697666;28;1113;-67
2024/02/07 00:26:22;;;;;;;7.90;4.30;;;;;;;;;;702641;28;896;-68
2024/02/07 00:26:43;;;;;;;7.93;4.40;;;;;;;;;;703738;28;793;-67
2024/02/07 00:27:03;;;;;;;9.35;4.78;;;;;;;;;;702712;28;2235;-67
2024/02/07 00:27:23;;;;;;;9.50;4.37;;;;;;;;;;703531;28;1235;-69
2024/02/07 00:27:43;;;;;;;11.17;4.53;;;;;;;;;;706122;28;947;-68
2024/02/07 00:28:05;;;;;;;10.17;4.70;;;;;;;;;;703653;28;4408;-68
2024/02/07 00:28:25;;;;;;;10.57;4.40;;;;;;;;;;703773;28;1030;-68
2024/02/07 00:28:45;;;;;;;9.30;4.67;;;;;;;;;;700877;28;1253;-67
2024/02/07 00:29:06;;;;;;;9.40;4.50;;;;;;;;;;703209;28;1420;-66
2024/02/07 00:29:26;;;;;;;9.90;4.97;;;;;;;;;;701635;28;1170;-68
2024/02/07 00:29:46;;;;;;;9.70;5.00;;;;;;;;;;701391;28;1139;-67
2024/02/07 00:30:07;;;;;;;9.77;5.07;;;;;;;;;;700933;28;1278;-68
2024/02/07 00:30:29;;;;;;;9.50;4.90;;;;;;;;;;703154;28;856;-67
2024/02/07 00:30:49;;;;;;;9.48;4.88;;;;;;;;;;700218;28;1225;-68
2024/02/07 00:31:09;;;;;;;9.23;4.75;;;;;;;;;;700315;28;4454;-68
2024/02/07 00:31:30;;;;;;;9.47;4.60;;;;;;;;;;703716;27;950;-68
2024/02/07 00:31:50;;;;;;;9.32;4.68;;;;;;;;;;697854;28;1316;-68
2024/02/07 00:32:11;;;;;;;10.43;5.07;;;;;;;;;;699855;28;761;-67
2024/02/07 00:32:31;;;;;;;10.10;5.07;;;;;;;;;;699466;28;1214;-65
2024/02/07 00:32:51;;;;;;;9.55;4.80;;;;;;;;;;694942;28;1413;-64
2024/02/07 00:33:11;;;;;;;10.57;4.67;;;;;;;;;;696205;28;943;-66
2024/02/07 00:33:32;;;;;;;10.50;4.40;;;;;;;;;;696741;28;1281;-67
2024/02/07 00:33:54;;;;;;;10.23;4.63;;;;;;;;;;701123;28;4513;-67
2024/02/07 00:34:14;;;;;;;10.48;4.75;;;;;;;;;;702329;28;1080;-61
2024/02/07 00:34:34;;;;;;;9.73;4.50;;;;;;;;;;700650;28;959;-64
2024/02/07 00:34:54;;;;;;;8.13;4.37;;;;;;;;;;699775;28;1214;-64
2024/02/07 00:35:15;;;;;;;8.60;4.80;;;;;;;;;;701891;28;827;-65
2024/02/07 00:35:35;;;;;;;10.23;5.10;;;;;;;;;;702501;28;841;-66
2024/02/07 00:35:55;;;;;;;9.10;4.70;;;;;;;;;;698652;28;1344;-64
2024/02/07 00:36:16;;;;;;;10.25;4.60;;;;;;;;;;699726;28;897;-65
2024/02/07 00:36:36;;;;;;;9.00;4.17;;;;;;;;;;702618;28;1249;-64
2024/02/07 00:36:56;;;;;;;9.87;4.47;;;;;;;;;;699178;28;4416;-65
2024/02/07 00:37:16;;;;;;;11.27;5.07;;;;;;;;;;700183;28;939;-66
2024/02/07 00:37:37;;;;;;;10.93;4.90;;;;;;;;;;701225;28;1398;-64
2024/02/07 00:37:57;;;;;;;8.70;4.43;;;;;;;;;;700910;28;981;-66
2024/02/07 00:38:17;;;;;;;10.05;4.75;;;;;;;;;;706095;28;1210;-65
2024/02/07 00:38:37;;;;;;;9.87;4.80;;;;;;;;;;702117;28;1095;-64
2024/02/07 00:38:58;;;;;;;9.93;4.80;;;;;;;;;;699196;28;1358;-65
2024/02/07 00:39:19;;;;;;;7.80;4.40;;;;;;;;;;702021;28;1245;-65
2024/02/07 00:39:40;;;;;;;9.07;4.50;;;;;;;;;;701176;28;872;-66
2024/02/07 00:40:00;;;;;;;10.33;5.20;;;;;;;;;;699396;28;4248;-64
2024/02/07 00:40:20;;;;;;;10.37;4.87;;;;;;;;;;703168;28;1930;-64
2024/02/07 00:40:41;;;;;;;10.60;4.70;;;;;;;;;;701534;28;1324;-64
2024/02/07 00:41:01;;;;;;;8.57;4.18;;;;;;;;;;696572;28;1451;-63
2024/02/07 00:41:22;;;;;;;7.93;4.13;;;;;;;;;;697672;28;1391;-62
2024/02/07 00:41:42;;;;;;;9.95;4.78;;;;;;;;;;699298;28;864;-64
2024/02/07 00:42:02;;;;;;;9.27;4.73;;;;;;;;;;696718;28;1040;-65
2024/02/07 00:42:22;;;;;;;9.80;4.80;;;;;;;;;;700463;28;888;-63
2024/02/07 00:42:43;;;;;;;10.30;5.15;;;;;;;;;;696251;28;1473;-63
2024/02/07 00:43:03;;;;;;;8.80;4.90;;;;;;;;;;695637;28;4341;-63
2024/02/07 00:43:23;;;;;;;9.27;4.80;;;;;;;;;;697349;28;1354;-63
2024/02/07 00:43:44;;;;;;;10.83;5.00;;;;;;;;;;699124;28;935;-63
2024/02/07 00:44:04;;;;;;;9.80;4.57;;;;;;;;;;696950;28;1095;-64
2024/02/07 00:44:24;;;;;;;9.93;4.73;;;;;;;;;;700153;28;1407;-61
2024/02/07 00:44:44;;;;;;;9.40;4.70;;;;;;;;;;700371;28;1292;-63
2024/02/07 00:45:05;;;;;;;9.13;4.93;;;;;;;;;;699035;28;1157;-63
2024/02/07 00:45:27;;;;;;;11.00;5.22;;;;;;;;;;701968;28;892;-64
2024/02/07 00:45:48;;;;;;;10.35;5.30;;;;;;;;;;701005;28;1174;-63
2024/02/07 00:46:08;;;;;;;10.60;5.33;;;;;;;;;;702367;28;4341;-65
2024/02/07 00:46:28;;;;;;;10.32;5.00;;;;;;;;;;704205;28;872;-63
2024/02/07 00:46:48;;;;;;;9.50;5.10;;;;;;;;;;703159;28;882;-63
2024/02/07 00:47:10;;;;;;;9.40;5.20;;;;;;;;;;701144;28;975;-63
2024/02/07 00:47:31;;;;;;;9.82;5.00;;;;;;;;;;701460;28;1120;-63
2024/02/07 00:47:51;;;;;;;9.97;5.27;;;;;;;;;;700590;28;1334;-62
2024/02/07 00:48:12;;;;;;;8.73;5.00;;;;;;;;;;701733;28;818;-63
2024/02/07 00:48:32;;;;;;;10.10;4.80;;;;;;;;;;702012;28;872;-63
2024/02/07 00:48:52;;;;;;;10.07;5.13;;;;;;;;;;700035;28;4257;-63
2024/02/07 00:49:13;;;;;;;10.27;5.30;;;;;;;;;;701351;28;901;-63
2024/02/07 00:49:33;;;;;;;10.15;5.20;;;;;;;;;;698145;28;1464;-62
2024/02/07 00:49:53;;;;;;;9.53;4.83;;;;;;;;;;697644;28;977;-63
2024/02/07 00:50:14;;;;;;;9.18;4.82;;;;;;;;;;698272;28;809;-63
2024/02/07 00:50:34;;;;;;;9.37;4.80;;;;;;;;;;695682;28;4399;-65
2024/02/07 00:50:54;;;;;;;9.03;4.60;;;;;;;;;;695984;28;2249;-63
2024/02/07 00:51:14;;;;;;;9.38;4.70;;;;;;;;;;698150;28;1484;-64
2024/02/07 00:51:35;;;;;;;10.30;4.80;;;;;;;;;;702410;28;972;-66
2024/02/07 00:51:55;;;;;;;10.37;4.50;;;;;;;;;;699597;28;4434;-66
2024/02/07 00:52:15;;;;;;;8.43;4.75;;;;;;;;;;701552;28;978;-62
2024/02/07 00:52:36;;;;;;;9.93;5.00;;;;;;;;;;703069;28;1158;-63
2024/02/07 00:52:56;;;;;;;9.50;4.53;;;;;;;;;;703707;28;1559;-63
2024/02/07 00:53:16;;;;;;;9.63;5.10;;;;;;;;;;704124;28;4670;-63
2024/02/07 00:53:37;;;;;;;10.80;5.50;;;;;;;;;;702567;28;1146;-63
2024/02/07 00:53:57;;;;;;;10.23;5.18;;;;;;;;;;698558;28;2265;-63
2024/02/07 00:54:17;;;;;;;10.63;4.90;;;;;;;;;;700968;28;1314;-64
2024/02/07 00:54:37;;;;;;;10.40;4.93;;;;;;;;;;697513;28;1351;-66
2024/02/07 00:54:58;;;;;;;8.88;4.53;;;;;;;;;;696711;28;4739;-65
2024/02/07 00:55:18;;;;;;;9.37;4.80;;;;;;;;;;699095;28;908;-65
2024/02/07 00:55:38;;;;;;;9.10;4.70;;;;;;;;;;701890;28;872;-65
2024/02/07 00:55:59;;;;;;;8.80;4.25;;;;;;;;;;701438;28;2349;-65
2024/02/07 00:56:20;;;;;;;9.40;4.87;;;;;;;;;;702090;28;1344;-64
2024/02/07 00:56:40;;;;;;;9.50;4.88;;;;;;;;;;703045;28;912;-67
2024/02/07 00:57:00;;;;;;;9.60;4.77;;;;;;;;;;703698;28;1928;-65
2024/02/07 00:57:21;;;;;;;10.93;4.70;;;;;;;;;;704844;28;900;-64
2024/02/07 00:57:41;;;;;;;7.87;4.10;;;;;;;;;;704112;28;1429;-64
2024/02/07 00:58:01;;;;;;;7.77;4.27;;;;;;;;;;702720;28;4284;-65
2024/02/07 00:58:22;;;;;;;8.25;4.25;;;;;;;;;;703775;28;1009;-63
2024/02/07 00:58:42;;;;;;;10.00;4.30;;;;;;;;;;703882;28;821;-65
2024/02/07 00:59:02;;;;;;;9.53;5.00;;;;;;;;;;703690;28;1748;-64
2024/02/07 00:59:23;;;;;;;9.83;4.87;;;;;;;;;;702335;28;967;-65
2024/02/07 00:59:43;;;;;;;9.80;4.83;;;;;;;;;;703660;28;900;-65
2024/02/07 01:00:04;;;;;;;7.72;4.22;;;;;;;;;;702727;28;1702;-65
2024/02/07 01:00:25;;;;;;;8.45;4.30;;;;;;;;;;703949;28;1917;-64
2024/02/07 01:00:45;;;;;;;10.45;4.65;;;;;;;;;;704167;28;1199;-66
2024/02/07 01:01:05;;;;;;;10.10;4.80;;;;;;;;;;703451;28;4403;-65
2024/02/07 01:01:26;;;;;;;8.20;4.88;;;;;;;;;;705169;28;1247;-65
2024/02/07 01:01:46;;;;;;;7.47;4.60;;;;;;;;;;705085;28;804;-66
2024/02/07 01:02:06;;;;;;;8.87;4.87;;;;;;;;;;698817;28;2228;-63
2024/02/07 01:02:26;;;;;;;8.00;4.37;;;;;;;;;;701600;28;1392;-65
2024/02/07 01:02:47;;;;;;;8.80;4.50;;;;;;;;;;698905;28;921;-65
2024/02/07 01:03:07;;;;;;;9.60;4.60;;;;;;;;;;697046;28;1390;-65
2024/02/07 01:03:27;;;;;;;8.50;4.97;;;;;;;;;;698770;28;979;-65
2024/02/07 01:03:47;;;;;;;8.45;5.00;;;;;;;;;;700310;28;924;-64
2024/02/07 01:04:08;;;;;;;8.47;4.60;;;;;;;;;;700938;28;4655;-64
2024/02/07 01:04:28;;;;;;;8.90;4.60;;;;;;;;;;700913;28;911;-64
2024/02/07 01:04:50;;;;;;;9.95;4.65;;;;;;;;;;700841;28;1709;-65
2024/02/07 01:05:10;;;;;;;10.80;5.18;;;;;;;;;;698970;28;1051;-65
2024/02/07 01:05:30;;;;;;;11.88;5.20;;;;;;;;;;697499;28;1539;-65
2024/02/07 01:05:51;;;;;;;10.90;4.67;;;;;;;;;;695555;28;2124;-63
2024/02/07 01:06:12;;;;;;;8.65;4.32;;;;;;;;;;697553;28;972;-65
2024/02/07 01:06:33;;;;;;;9.60;4.82;;;;;;;;;;694140;28;845;-64
2024/02/07 01:06:53;;;;;;;10.35;4.65;;;;;;;;;;695933;28;4250;-65
2024/02/07 01:07:14;;;;;;;8.10;4.40;;;;;;;;;;698530;28;1063;-64
2024/02/07 01:07:34;;;;;;;8.65;4.47;;;;;;;;;;701365;28;718;-64
2024/02/07 01:07:55;;;;;;;10.10;4.87;;;;;;;;;;701332;28;1486;-64
2024/02/07 01:08:15;;;;;;;9.27;5.00;;;;;;;;;;701132;28;779;-64
2024/02/07 01:08:36;;;;;;;7.63;4.50;;;;;;;;;;703100;28;1458;-63
2024/02/07 01:08:57;;;;;;;7.90;4.60;;;;;;;;;;701658;28;2257;-65
2024/02/07 01:09:17;;;;;;;10.15;4.88;;;;;;;;;;698632;28;1155;-62
2024/02/07 01:09:38;;;;;;;10.25;4.72;;;;;;;;;;700568;28;903;-65
2024/02/07 01:09:59;;;;;;;9.00;4.40;;;;;;;;;;699693;28;4355;-64
2024/02/07 01:10:19;;;;;;;9.10;4.83;;;;;;;;;;701935;28;1408;-63
2024/02/07 01:10:42;;;;;;;8.88;5.03;;;;;;;;;;701238;28;975;-64
2024/02/07 01:11:02;;;;;;;12.43;4.80;;;;;;;;;;698272;28;1733;-65
2024/02/07 01:11:23;;;;;;;10.50;5.00;;;;;;;;;;702847;28;939;-65
2024/02/07 01:11:44;;;;;;;10.23;5.33;;;;;;;;;;699530;28;1518;-65
2024/02/07 01:12:04;;;;;;;10.43;5.40;;;;;;;;;;696522;28;2296;-64
2024/02/07 01:12:25;;;;;;;8.80;5.38;;;;;;;;;;697821;28;1267;-65
2024/02/07 01:12:45;;;;;;;8.87;5.23;;;;;;;;;;696849;28;884;-64
2024/02/07 01:13:06;;;;;;;8.82;5.10;;;;;;;;;;696326;28;5074;-64
2024/02/07 01:13:26;;;;;;;7.73;4.60;;;;;;;;;;698491;28;1272;-63
2024/02/07 01:13:47;;;;;;;8.45;4.75;;;;;;;;;;699709;28;1249;-62
2024/02/07 01:14:07;;;;;;;8.93;4.65;;;;;;;;;;700729;28;1723;-63
2024/02/07 01:14:27;;;;;;;9.20;4.20;;;;;;;;;;705180;27;900;-64
2024/02/07 01:14:48;;;;;;;8.93;4.33;;;;;;;;;;704675;27;965;-61
2024/02/07 01:15:08;;;;;;;10.20;4.60;;;;;;;;;;703685;28;2468;-62
2024/02/07 01:15:28;;;;;;;10.60;5.13;;;;;;;;;;704565;27;1432;-61
2024/02/07 01:15:49;;;;;;;10.13;5.07;;;;;;;;;;703176;27;2527;-61
2024/02/07 01:16:09;;;;;;;9.57;4.47;;;;;;;;;;704566;27;4667;-61
2024/02/07 01:16:29;;;;;;;8.40;4.33;;;;;;;;;;704852;27;1234;-61
2024/02/07 01:16:49;;;;;;;9.53;4.90;;;;;;;;;;702471;27;1726;-63
2024/02/07 01:17:09;;;;;;;11.60;5.10;;;;;;;;;;700635;28;1042;-62
2024/02/07 01:17:31;;;;;;;10.40;4.90;;;;;;;;;;701490;28;915;-61
2024/02/07 01:17:51;;;;;;;9.68;4.78;;;;;;;;;;700195;28;1761;-63
2024/02/07 01:18:11;;;;;;;8.37;4.63;;;;;;;;;;701466;28;1249;-68
2024/02/07 01:18:32;;;;;;;9.07;4.23;;;;;;;;;;703043;28;865;-63
2024/02/07 01:18:52;;;;;;;8.90;4.77;;;;;;;;;;694207;28;4283;-67
2024/02/07 01:19:12;;;;;;;9.73;4.53;;;;;;;;;;701101;28;868;-62
2024/02/07 01:19:33;;;;;;;7.97;4.20;;;;;;;;;;701848;28;888;-63
2024/02/07 01:19:54;;;;;;;7.27;4.50;;;;;;;;;;700560;28;2403;-62
2024/02/07 01:20:14;;;;;;;8.45;4.75;;;;;;;;;;701644;28;1938;-63
2024/02/07 01:20:35;;;;;;;8.85;4.63;;;;;;;;;;702650;28;1147;-61
2024/02/07 01:20:55;;;;;;;9.02;5.07;;;;;;;;;;705247;27;977;-61
2024/02/07 01:21:15;;;;;;;10.37;4.50;;;;;;;;;;706026;27;1245;-61
2024/02/07 01:21:36;;;;;;;11.27;4.83;;;;;;;;;;705296;27;867;-64
2024/02/07 01:21:56;;;;;;;7.72;4.55;;;;;;;;;;701881;27;4311;-64
2024/02/07 01:22:16;;;;;;;8.20;4.80;;;;;;;;;;704421;27;1217;-65
2024/02/07 01:22:37;;;;;;;10.77;4.70;;;;;;;;;;707311;27;808;-63
2024/02/07 01:22:57;;;;;;;10.25;4.78;;;;;;;;;;703178;27;1768;-64
2024/02/07 01:23:17;;;;;;;9.33;4.93;;;;;;;;;;705288;27;843;-62
2024/02/07 01:23:42;;;;;;;9.53;4.90;;;;;;;;;;705833;27;895;-64
2024/02/07 01:24:06;;;;;;;9.18;4.57;;;;;;;;;;703799;27;2259;-64
2024/02/07 01:24:28;;;;;;;9.40;4.30;;;;;;;;;;704315;27;963;-63
2024/02/07 01:24:48;;;;;;;8.82;4.30;;;;;;;;;;706239;27;1060;-64
2024/02/07 01:25:08;;;;;;;8.27;4.60;;;;;;;;;;702633;27;4292;-64
2024/02/07 01:25:29;;;;;;;8.93;4.53;;;;;;;;;;701799;28;1237;-63
2024/02/07 01:25:49;;;;;;;7.63;4.13;;;;;;;;;;701985;28;1506;-64
2024/02/07 01:26:11;;;;;;;10.00;4.63;;;;;;;;;;701166;28;931;-64
2024/02/07 01:26:34;;;;;;;9.25;4.88;;;;;;;;;;702011;28;1069;-63
2024/02/07 01:26:55;;;;;;;9.73;5.05;;;;;;;;;;701980;28;1804;-64
2024/02/07 01:27:15;;;;;;;9.63;4.83;;;;;;;;;;703610;28;819;-63
2024/02/07 01:27:36;;;;;;;8.88;4.80;;;;;;;;;;700968;28;1171;-63
2024/02/07 01:27:56;;;;;;;7.65;4.60;;;;;;;;;;699004;28;4355;-63
2024/02/07 01:28:17;;;;;;;9.13;4.70;;;;;;;;;;701777;28;851;-64
2024/02/07 01:28:38;;;;;;;9.95;4.90;;;;;;;;;;698688;27;950;-63
2024/02/07 01:28:58;;;;;;;9.15;4.82;;;;;;;;;;703930;27;1732;-62
2024/02/07 01:29:18;;;;;;;8.00;4.00;;;;;;;;;;705317;27;1528;-62
2024/02/07 01:29:38;;;;;;;8.17;4.23;;;;;;;;;;704189;28;899;-62
2024/02/07 01:29:59;;;;;;;10.02;4.60;;;;;;;;;;701607;28;1717;-62
2024/02/07 01:30:20;;;;;;;8.90;4.80;;;;;;;;;;704563;27;903;-62
2024/02/07 01:30:40;;;;;;;8.27;4.53;;;;;;;;;;704198;27;749;-63
2024/02/07 01:31:00;;;;;;;8.03;4.27;;;;;;;;;;702302;27;4244;-64
2024/02/07 01:31:21;;;;;;;8.73;4.70;;;;;;;;;;703618;28;868;-61
2024/02/07 01:31:41;;;;;;;8.23;4.80;;;;;;;;;;702873;28;900;-62
2024/02/07 01:32:02;;;;;;;8.65;5.05;;;;;;;;;;701716;27;1750;-62
2024/02/07 01:32:22;;;;;;;9.07;4.90;;;;;;;;;;701655;28;844;-62
2024/02/07 01:32:42;;;;;;;10.68;4.88;;;;;;;;;;700918;28;1527;-62
2024/02/07 01:33:03;;;;;;;8.70;4.80;;;;;;;;;;700616;28;1786;-63
2024/02/07 01:33:23;;;;;;;9.43;5.10;;;;;;;;;;703361;28;789;-62
2024/02/07 01:33:43;;;;;;;9.37;4.60;;;;;;;;;;702197;28;817;-63
2024/02/07 01:34:04;;;;;;;8.23;4.60;;;;;;;;;;699869;27;4478;-62
2024/02/07 01:34:24;;;;;;;8.90;4.40;;;;;;;;;;703484;27;1452;-61
2024/02/07 01:34:45;;;;;;;8.37;4.20;;;;;;;;;;705368;27;859;-62
2024/02/07 01:35:05;;;;;;;9.35;4.25;;;;;;;;;;703021;27;1573;-61
2024/02/07 01:35:27;;;;;;;8.15;4.38;;;;;;;;;;702923;28;979;-61
2024/02/07 01:35:47;;;;;;;8.20;4.45;;;;;;;;;;703410;27;1199;-62
2024/02/07 01:36:07;;;;;;;9.53;4.73;;;;;;;;;;703065;27;1434;-62
2024/02/07 01:36:28;;;;;;;7.43;4.30;;;;;;;;;;706088;27;844;-62
2024/02/07 01:36:48;;;;;;;7.97;4.57;;;;;;;;;;701835;28;788;-62
2024/02/07 01:37:09;;;;;;;9.10;4.70;;;;;;;;;;700194;28;4488;-62
2024/02/07 01:37:30;;;;;;;9.38;4.45;;;;;;;;;;702227;28;1246;-61
2024/02/07 01:37:50;;;;;;;8.37;4.30;;;;;;;;;;701680;28;1158;-63
2024/02/07 01:38:17;;;;;;;8.50;4.32;;;;;;;;;;702207;28;978;-62
2024/02/07 01:38:37;;;;;;;7.60;4.22;;;;;;;;;;703640;27;904;-62
2024/02/07 01:38:59;;;;;;;7.07;4.60;;;;;;;;;;702758;28;1804;-62
2024/02/07 01:39:19;;;;;;;7.78;4.45;;;;;;;;;;704551;27;1302;-62
2024/02/07 01:39:39;;;;;;;8.37;4.57;;;;;;;;;;703905;27;928;-61
2024/02/07 01:40:00;;;;;;;7.65;4.35;;;;;;;;;;702669;27;4234;-62
2024/02/07 01:40:21;;;;;;;7.75;4.55;;;;;;;;;;704560;27;1899;-62
2024/02/07 01:40:42;;;;;;;7.78;4.45;;;;;;;;;;705249;27;1320;-61
2024/02/07 01:41:02;;;;;;;7.78;4.32;;;;;;;;;;704433;27;1687;-61
2024/02/07 01:41:26;;;;;;;8.83;4.93;;;;;;;;;;702386;28;777;-61
2024/02/07 01:41:59;;;;;;;8.45;4.35;;;;;;;;;;702372;28;931;-62
2024/02/07 01:42:19;;;;;;;8.60;4.35;;;;;;;;;;701320;28;1280;-61
2024/02/07 01:42:40;;;;;;;8.80;4.50;;;;;;;;;;701455;28;1280;-65
2024/02/07 01:43:01;;;;;;;8.52;4.38;;;;;;;;;;699846;28;4423;-62
2024/02/07 01:43:21;;;;;;;9.52;4.40;;;;;;;;;;704353;27;955;-61
2024/02/07 01:43:42;;;;;;;9.35;4.70;;;;;;;;;;703916;27;799;-62
2024/02/07 01:44:02;;;;;;;9.80;4.77;;;;;;;;;;700507;28;1949;-62
2024/02/07 01:44:22;;;;;;;10.07;5.00;;;;;;;;;;702337;28;986;-65
2024/02/07 01:44:43;;;;;;;10.48;4.65;;;;;;;;;;702222;28;907;-67
2024/02/07 01:45:23;;;;;;;9.80;4.33;;;;;;;;;;697081;28;1814;-66
2024/02/07 01:45:43;;;;;;;9.68;4.57;;;;;;;;;;699646;28;1065;-63
2024/02/07 01:46:04;;;;;;;9.10;4.63;;;;;;;;;;698816;28;4223;-63
2024/02/07 01:46:27;;;;;;;8.03;4.37;;;;;;;;;;699198;28;1301;-61
2024/02/07 01:46:48;;;;;;;9.10;4.25;;;;;;;;;;697010;28;4103;-63
2024/02/07 01:47:13;;;;;;;8.37;4.60;;;;;;;;;;697382;28;4547;-63
2024/02/07 01:47:33;;;;;;;8.63;4.38;;;;;;;;;;699681;28;840;-63
2024/02/07 01:47:54;;;;;;;8.37;4.20;;;;;;;;;;697161;28;2034;-63
2024/02/07 01:48:14;;;;;;;7.53;4.17;;;;;;;;;;702717;28;895;-62
2024/02/07 01:48:34;;;;;;;8.30;4.45;;;;;;;;;;706314;27;908;-62
2024/02/07 01:48:55;;;;;;;8.07;4.70;;;;;;;;;;701032;28;4381;-63
2024/02/07 01:49:15;;;;;;;8.88;4.20;;;;;;;;;;702076;28;876;-63
2024/02/07 01:49:35;;;;;;;8.40;4.40;;;;;;;;;;699498;28;1359;-63
2024/02/07 01:49:56;;;;;;;7.80;4.50;;;;;;;;;;698899;28;933;-62
2024/02/07 01:50:16;;;;;;;9.38;5.10;;;;;;;;;;696581;28;1308;-62
2024/02/07 01:50:38;;;;;;;9.20;4.00;;;;;;;;;;696490;28;1282;-62
2024/02/07 01:51:00;;;;;;;10.30;4.35;;;;;;;;;;697323;28;2163;-63
2024/02/07 01:51:20;;;;;;;10.10;4.57;;;;;;;;;;694754;28;1422;-62
2024/02/07 01:51:41;;;;;;;7.93;4.20;;;;;;;;;;696172;28;944;-62
2024/02/07 01:52:01;;;;;;;8.43;4.55;;;;;;;;;;695497;28;4276;-64
2024/02/07 01:52:23;;;;;;;10.45;4.75;;;;;;;;;;696905;28;1377;-63
2024/02/07 01:52:45;;;;;;;9.40;4.85;;;;;;;;;;697130;28;880;-65
2024/02/07 01:53:07;;;;;;;8.90;4.80;;;;;;;;;;696648;28;1487;-62
2024/02/07 01:53:27;;;;;;;8.35;4.72;;;;;;;;;;696392;28;944;-63
2024/02/07 01:53:48;;;;;;;9.30;4.80;;;;;;;;;;697558;28;1360;-64
2024/02/07 01:54:09;;;;;;;9.50;4.80;;;;;;;;;;702459;28;1454;-63
2024/02/07 01:54:31;;;;;;;8.85;4.63;;;;;;;;;;702452;28;954;-63
2024/02/07 01:54:53;;;;;;;10.45;4.78;;;;;;;;;;699045;28;4523;-63
2024/02/07 01:55:13;;;;;;;8.82;4.50;;;;;;;;;;698481;28;1191;-63
2024/02/07 01:55:35;;;;;;;8.93;4.77;;;;;;;;;;699974;28;1199;-63
2024/02/07 01:55:56;;;;;;;8.55;4.72;;;;;;;;;;695282;28;1519;-62
2024/02/07 01:56:17;;;;;;;9.60;4.20;;;;;;;;;;695512;28;1253;-62
2024/02/07 01:56:37;;;;;;;7.97;4.20;;;;;;;;;;695744;28;1391;-62
2024/02/07 01:56:58;;;;;;;8.80;4.43;;;;;;;;;;694842;28;1708;-63
2024/02/07 01:57:19;;;;;;;9.00;4.73;;;;;;;;;;698650;28;757;-62
2024/02/07 01:57:40;;;;;;;8.77;4.50;;;;;;;;;;699105;28;940;-64
2024/02/07 01:58:00;;;;;;;7.77;4.33;;;;;;;;;;700057;28;4281;-63
2024/02/07 01:58:21;;;;;;;8.98;4.70;;;;;;;;;;703223;27;856;-63
2024/02/07 01:58:41;;;;;;;8.83;4.30;;;;;;;;;;705704;27;1213;-63
2024/02/07 01:59:04;;;;;;;9.23;4.27;;;;;;;;;;703085;27;1768;-63
2024/02/07 01:59:26;;;;;;;7.30;4.00;;;;;;;;;;705740;27;887;-64
2024/02/07 01:59:47;;;;;;;9.02;4.32;;;;;;;;;;701290;28;1264;-62
2024/02/07 02:00:08;;;;;;;8.45;4.40;;;;;;;;;;698319;28;1762;-62
2024/02/07 02:00:32;;;;;;;8.30;4.30;;;;;;;;;;698626;28;1906;-61
2024/02/07 02:00:53;;;;;;;9.73;4.50;;;;;;;;;;698123;28;4290;-63
2024/02/07 02:01:13;;;;;;;9.18;4.75;;;;;;;;;;695994;28;1093;-63
2024/02/07 02:01:34;;;;;;;9.00;4.40;;;;;;;;;;695597;28;1321;-63
2024/02/07 02:01:54;;;;;;;10.20;4.68;;;;;;;;;;693097;28;1797;-63
2024/02/07 02:02:15;;;;;;;10.03;4.67;;;;;;;;;;697826;28;856;-63
2024/02/07 02:02:35;;;;;;;8.98;4.32;;;;;;;;;;696078;28;767;-63
2024/02/07 02:02:55;;;;;;;9.33;4.10;;;;;;;;;;695599;28;1899;-64
2024/02/07 02:03:15;;;;;;;8.33;4.23;;;;;;;;;;699693;28;1082;-63
2024/02/07 02:03:36;;;;;;;7.35;4.10;;;;;;;;;;701254;28;1368;-63
2024/02/07 02:03:56;;;;;;;8.87;4.20;;;;;;;;;;698825;28;4331;-64
2024/02/07 02:04:17;;;;;;;8.88;4.13;;;;;;;;;;701481;28;884;-64
2024/02/07 02:04:37;;;;;;;9.00;4.60;;;;;;;;;;702649;28;797;-63
2024/02/07 02:04:58;;;;;;;8.77;4.60;;;;;;;;;;699780;28;1722;-64
2024/02/07 02:05:19;;;;;;;8.85;4.65;;;;;;;;;;701278;28;1491;-63
2024/02/07 02:05:40;;;;;;;8.37;4.50;;;;;;;;;;701906;28;1703;-64
2024/02/07 02:06:01;;;;;;;7.25;4.38;;;;;;;;;;700483;28;1773;-63
2024/02/07 02:06:21;;;;;;;8.67;4.63;;;;;;;;;;701087;28;908;-63
2024/02/07 02:06:41;;;;;;;9.20;4.15;;;;;;;;;;702266;28;944;-66
2024/02/07 02:07:02;;;;;;;9.90;4.47;;;;;;;;;;699267;28;4304;-62
2024/02/07 02:07:23;;;;;;;8.50;4.53;;;;;;;;;;702159;28;1389;-65
2024/02/07 02:07:44;;;;;;;8.25;4.47;;;;;;;;;;705882;27;967;-63
2024/02/07 02:08:05;;;;;;;9.20;4.88;;;;;;;;;;704666;27;2000;-64